Terminal Aerodrome Forecast
Issued by NWS Atlanta, GA

Home | Current Version | Previous Version | Text Only | Print | Product List | Glossary On
Versions: 1 2 3 4 5 6 7 8 9 10 11 12 13 14 15 16 17 18 19 20 21 22 23 24
000
FTAK31 PAJN 302339
TAFAHN
TAF
PAHN 302339Z 3100/3124 12012G20KT P6SM VCSH FEW030 SCT050 BKN080
     FM310300 10008KT P6SM SCT050 BKN100
     FM311100 32006KT P6SM SCT100
     FM311900 15009KT P6SM BKN120
      AMD LTD TO CLD VIS AND WIND=

USA.gov is the U.S. government's official web portal to all federal, state and local government web resources and services.